createdAt,value
2018-06-28T00:03:03.892Z,18.80
2018-06-28T00:05:32.614Z,18.70
2018-06-28T00:08:01.308Z,18.70
2018-06-28T00:10:30.070Z,18.70
2018-06-28T00:12:58.795Z,18.70
2018-06-28T00:15:27.581Z,18.60
2018-06-28T00:17:56.323Z,18.60
2018-06-28T00:20:25.085Z,18.50
2018-06-28T00:22:53.773Z,18.50
2018-06-28T00:25:22.529Z,18.50
2018-06-28T00:27:51.199Z,18.40
2018-06-28T00:30:19.913Z,18.40
2018-06-28T00:35:16.874Z,18.30
2018-06-28T00:37:45.560Z,18.30
2018-06-28T00:40:14.182Z,18.30
2018-06-28T00:42:42.870Z,18.20
2018-06-28T00:45:11.722Z,18.20
2018-06-28T00:47:40.542Z,18.20
2018-06-28T00:50:09.212Z,18.20
2018-06-28T00:52:37.942Z,18.10
2018-06-28T00:55:06.656Z,18.10
2018-06-28T00:57:35.412Z,18.10
2018-06-28T01:00:04.315Z,18.00
2018-06-28T01:02:33.129Z,18.00
2018-06-28T01:05:01.860Z,18.00
2018-06-28T01:07:30.569Z,18.00
2018-06-28T01:09:59.503Z,18.00
2018-06-28T01:12:28.229Z,17.90
2018-06-28T01:14:56.971Z,17.90
2018-06-28T01:17:25.708Z,17.80
2018-06-28T01:19:54.398Z,17.80
2018-06-28T01:22:23.084Z,17.70
2018-06-28T01:24:52.433Z,17.70
2018-06-28T01:27:21.082Z,17.70
2018-06-28T01:29:49.864Z,17.70
2018-06-28T01:32:18.564Z,17.80
2018-06-28T01:34:47.272Z,17.70
2018-06-28T01:37:16.096Z,17.70
2018-06-28T01:39:44.768Z,17.70
2018-06-28T01:42:56.982Z,17.70
2018-06-28T01:45:26.047Z,17.70
2018-06-28T01:47:54.855Z,17.60
2018-06-28T01:50:23.773Z,17.60
2018-06-28T01:52:52.599Z,17.60
2018-06-28T01:55:21.258Z,17.50
2018-06-28T01:57:49.943Z,17.40
2018-06-28T02:00:18.653Z,17.40
2018-06-28T02:02:47.300Z,17.40
2018-06-28T02:05:16.004Z,17.40
2018-06-28T02:07:44.720Z,17.40
2018-06-28T02:10:13.468Z,17.30
2018-06-28T02:12:42.255Z,17.40
2018-06-28T02:15:10.980Z,17.40
2018-06-28T02:17:39.728Z,17.30
2018-06-28T02:20:08.463Z,17.30
2018-06-28T02:22:37.152Z,17.20
2018-06-28T02:25:05.965Z,17.20
2018-06-28T02:27:34.624Z,17.10
2018-06-28T02:30:03.316Z,17.10
2018-06-28T02:32:32.028Z,17.10
2018-06-28T02:35:00.835Z,17.10
2018-06-28T02:37:29.539Z,17.10
2018-06-28T02:39:58.217Z,17.00
2018-06-28T02:42:26.946Z,17.00
2018-06-28T02:44:55.640Z,17.00
2018-06-28T02:47:24.422Z,17.00
2018-06-28T02:49:53.175Z,17.00
2018-06-28T02:52:21.958Z,16.90
2018-06-28T02:54:50.655Z,17.00
2018-06-28T02:57:19.340Z,16.90
2018-06-28T02:59:48.080Z,16.90
2018-06-28T03:02:16.814Z,16.80
2018-06-28T03:04:45.531Z,16.80
2018-06-28T03:07:14.287Z,16.80
2018-06-28T03:09:43.035Z,16.80
2018-06-28T03:12:12.519Z,16.80
2018-06-28T03:14:41.199Z,16.70
2018-06-28T03:17:10.137Z,16.70
2018-06-28T03:19:38.833Z,16.70
2018-06-28T03:22:07.643Z,16.70
2018-06-28T03:24:36.369Z,16.70
2018-06-28T03:27:05.074Z,16.60
2018-06-28T03:29:33.792Z,16.70
2018-06-28T03:32:02.547Z,16.70
2018-06-28T03:34:31.208Z,16.70
2018-06-28T03:36:59.926Z,16.60
2018-06-28T03:39:28.617Z,16.60
2018-06-28T03:41:57.344Z,16.60
2018-06-28T03:44:26.089Z,16.50
2018-06-28T03:46:54.910Z,16.60
2018-06-28T03:49:23.604Z,16.60
2018-06-28T03:51:52.359Z,16.50
2018-06-28T03:54:21.061Z,16.50
2018-06-28T03:56:49.883Z,16.50
2018-06-28T03:59:18.527Z,16.50
2018-06-28T04:01:47.115Z,16.50
2018-06-28T04:04:15.825Z,16.50
2018-06-28T04:06:44.537Z,16.60
2018-06-28T04:09:13.252Z,16.60
2018-06-28T04:11:41.929Z,16.50
2018-06-28T04:14:10.628Z,16.50
2018-06-28T04:16:39.308Z,16.50
2018-06-28T04:19:08.024Z,16.50
2018-06-28T04:21:37.390Z,16.50
2018-06-28T04:24:06.112Z,16.50
2018-06-28T04:26:34.791Z,16.50
2018-06-28T04:29:03.442Z,16.50
2018-06-28T04:31:32.094Z,16.50
2018-06-28T04:34:00.750Z,16.60
2018-06-28T04:36:29.527Z,16.60
2018-06-28T04:38:58.303Z,16.70
2018-06-28T04:41:27.001Z,16.80
2018-06-28T04:43:55.669Z,16.80
2018-06-28T04:46:24.393Z,16.80
2018-06-28T04:48:53.093Z,16.80
2018-06-28T04:51:21.807Z,16.90
2018-06-28T04:53:50.587Z,17.00
2018-06-28T04:56:19.318Z,17.00
2018-06-28T04:58:48.018Z,17.10
2018-06-28T05:01:16.775Z,17.10
2018-06-28T05:03:45.692Z,17.20
2018-06-28T05:06:14.428Z,17.20
2018-06-28T05:08:43.190Z,17.30
2018-06-28T05:11:11.886Z,17.40
2018-06-28T05:13:40.822Z,17.40
2018-06-28T05:16:09.676Z,17.40
2018-06-28T05:18:38.701Z,17.60
2018-06-28T05:21:07.350Z,17.60
2018-06-28T05:23:36.081Z,17.70
2018-06-28T05:26:05.058Z,17.80
2018-06-28T05:28:33.761Z,17.90
2018-06-28T05:31:02.430Z,18.00
2018-06-28T05:33:31.167Z,18.00
2018-06-28T05:35:59.820Z,18.10
2018-06-28T05:38:28.519Z,18.20
2018-06-28T05:40:58.174Z,18.30
2018-06-28T05:45:55.528Z,18.40
2018-06-28T05:48:24.220Z,18.50
2018-06-28T05:50:52.870Z,18.60
2018-06-28T05:53:21.568Z,18.70
2018-06-28T05:55:50.230Z,18.80
2018-06-28T05:58:19.033Z,18.80
2018-06-28T06:00:47.767Z,19.00
2018-06-28T06:03:16.576Z,19.00
2018-06-28T06:05:46.037Z,19.20
2018-06-28T06:08:15.105Z,19.20
2018-06-28T06:10:44.307Z,19.40
2018-06-28T06:13:13.800Z,19.50
2018-06-28T06:15:42.493Z,19.60
2018-06-28T06:20:39.426Z,19.90
2018-06-28T06:23:08.100Z,20.00
2018-06-28T06:25:36.826Z,20.10
2018-06-28T06:28:05.462Z,20.10
2018-06-28T06:30:35.031Z,20.20
2018-06-28T06:33:03.709Z,20.20
2018-06-28T06:35:32.408Z,20.30
2018-06-28T06:38:01.072Z,20.50
2018-06-28T06:40:29.769Z,20.60
2018-06-28T06:42:58.577Z,20.60
2018-06-28T06:47:55.607Z,20.90
2018-06-28T06:50:24.371Z,21.10
2018-06-28T06:52:53.115Z,21.10
2018-06-28T06:55:21.837Z,21.20
2018-06-28T06:57:50.553Z,21.50
2018-06-28T07:00:19.447Z,21.60
2018-06-28T07:02:48.209Z,21.70
2018-06-28T07:05:16.941Z,21.80
2018-06-28T07:07:45.643Z,21.70
2018-06-28T07:10:14.420Z,21.80
2018-06-28T07:15:11.494Z,22.00
2018-06-28T07:17:40.202Z,22.10
2018-06-28T07:20:08.906Z,22.10
2018-06-28T07:22:37.622Z,22.20
2018-06-28T07:25:06.412Z,22.30
2018-06-28T07:27:35.262Z,22.40
2018-06-28T07:30:04.865Z,22.60
2018-06-28T07:32:33.698Z,22.60
2018-06-28T07:35:02.431Z,22.60
2018-06-28T07:37:31.129Z,22.70
2018-06-28T07:39:59.805Z,22.90
2018-06-28T07:42:28.528Z,23.00
2018-06-28T07:44:57.352Z,23.20
2018-06-28T07:47:26.118Z,23.10
2018-06-28T07:49:54.868Z,23.10
2018-06-28T07:54:51.996Z,23.40
2018-06-28T07:57:20.762Z,23.40
2018-06-28T07:59:49.429Z,23.60
2018-06-28T08:02:18.330Z,23.90
2018-06-28T08:04:47.079Z,24.10
2018-06-28T08:07:15.787Z,24.10
2018-06-28T08:09:44.470Z,24.30
2018-06-28T08:12:13.255Z,24.30
2018-06-28T08:14:42.116Z,24.40
2018-06-28T08:17:10.835Z,24.60
2018-06-28T08:19:40.385Z,24.70
2018-06-28T08:22:09.129Z,24.90
2018-06-28T08:24:37.867Z,24.70
2018-06-28T08:27:06.625Z,24.80
2018-06-28T08:29:35.379Z,25.00
2018-06-28T08:32:04.135Z,25.00
2018-06-28T08:34:32.830Z,25.00
2018-06-28T08:37:01.609Z,25.10
2018-06-28T08:41:58.701Z,25.50
2018-06-28T08:44:27.498Z,25.50
2018-06-28T08:46:57.246Z,25.50
2018-06-28T08:49:25.934Z,25.60
2018-06-28T08:51:54.620Z,25.50
2018-06-28T08:54:23.298Z,25.70
2018-06-28T08:56:52.002Z,25.90
2018-06-28T08:59:20.704Z,26.10
2018-06-28T09:01:49.436Z,26.40
2018-06-28T09:04:18.193Z,26.60
2018-06-28T09:06:46.944Z,26.40
2018-06-28T09:09:15.657Z,26.50
2018-06-28T09:11:44.363Z,26.50
2018-06-28T09:14:13.365Z,26.60
2018-06-28T09:16:42.238Z,26.70
2018-06-28T09:19:10.961Z,26.60
2018-06-28T09:21:39.665Z,26.60
2018-06-28T09:24:08.406Z,26.50
2018-06-28T09:26:37.181Z,26.50
2018-06-28T09:29:06.012Z,26.60
2018-06-28T09:31:35.183Z,26.60
2018-06-28T09:34:04.026Z,26.80
2018-06-28T09:36:33.334Z,27.00
2018-06-28T09:39:02.106Z,27.30
2018-06-28T09:41:30.746Z,27.30
2018-06-28T09:43:59.509Z,27.40
2018-06-28T09:46:29.311Z,27.20
2018-06-28T09:48:58.782Z,27.30
2018-06-28T09:51:27.514Z,27.50
2018-06-28T09:53:56.931Z,27.60
2018-06-28T09:56:25.709Z,27.60
2018-06-28T09:58:54.629Z,27.60
2018-06-28T10:01:23.398Z,27.60
2018-06-28T10:03:52.389Z,27.70
2018-06-28T10:06:22.493Z,27.70
2018-06-28T10:08:51.354Z,27.80
2018-06-28T10:11:22.282Z,27.90
2018-06-28T10:13:51.712Z,28.00
2018-06-28T10:16:20.447Z,28.00
2018-06-28T10:18:49.560Z,28.20
2018-06-28T10:21:19.118Z,28.50
2018-06-28T10:23:48.080Z,28.60
2018-06-28T10:26:17.556Z,28.80
2018-06-28T10:28:46.302Z,28.90
2018-06-28T10:31:14.981Z,28.90
2018-06-28T10:33:44.700Z,29.00
2018-06-28T10:36:14.488Z,29.10
2018-06-28T10:38:43.964Z,29.20
2018-06-28T10:41:12.633Z,29.30
2018-06-28T10:43:41.562Z,29.00
2018-06-28T10:46:10.347Z,28.80
2018-06-28T10:48:39.038Z,29.10
2018-06-28T10:51:07.784Z,29.40
2018-06-28T10:53:36.523Z,29.30
2018-06-28T10:56:05.488Z,29.40
2018-06-28T10:58:34.207Z,29.50
2018-06-28T11:01:02.957Z,29.60
2018-06-28T11:03:31.808Z,29.70
2018-06-28T11:06:03.206Z,29.70
2018-06-28T11:08:31.975Z,29.30
2018-06-28T11:11:00.905Z,29.30
2018-06-28T11:13:29.535Z,29.40
2018-06-28T11:15:58.393Z,29.60
2018-06-28T11:18:27.115Z,29.50
2018-06-28T11:20:55.893Z,29.50
2018-06-28T11:23:25.751Z,29.80
2018-06-28T11:25:54.533Z,29.90
2018-06-28T11:28:23.256Z,29.80
2018-06-28T11:30:51.992Z,29.70
2018-06-28T11:33:20.658Z,29.60
2018-06-28T11:35:49.357Z,29.80
2018-06-28T11:38:18.030Z,30.00
2018-06-28T11:40:46.698Z,30.20
2018-06-28T11:43:15.400Z,30.40
2018-06-28T11:45:44.083Z,30.70
2018-06-28T11:48:13.386Z,30.90
2018-06-28T11:50:42.043Z,30.80
2018-06-28T11:53:11.696Z,30.90
2018-06-28T11:55:40.346Z,30.30
2018-06-28T11:58:09.049Z,29.80
2018-06-28T12:00:37.742Z,30.00
2018-06-28T12:03:06.416Z,30.00
2018-06-28T12:05:35.138Z,30.00
2018-06-28T12:08:03.839Z,30.30
2018-06-28T12:10:32.507Z,30.30
2018-06-28T12:13:02.039Z,30.30
2018-06-28T12:15:30.601Z,30.30
2018-06-28T12:17:59.326Z,29.80
2018-06-28T12:20:28.048Z,29.40
2018-06-28T12:25:25.026Z,29.60
2018-06-28T12:27:53.663Z,29.70
2018-06-28T12:30:22.318Z,29.10
2018-06-28T12:32:51.046Z,29.10
2018-06-28T12:35:19.763Z,29.20
2018-06-28T12:37:48.588Z,29.70
2018-06-28T12:40:17.278Z,29.60
2018-06-28T12:42:45.884Z,29.60
2018-06-28T12:45:16.444Z,29.50
2018-06-28T12:47:58.176Z,29.30
2018-06-28T12:50:27.036Z,29.50
2018-06-28T12:52:58.751Z,29.50
2018-06-28T12:55:29.674Z,29.20
2018-06-28T12:57:58.419Z,28.80
2018-06-28T13:00:27.149Z,29.00
2018-06-28T13:02:55.918Z,28.90
2018-06-28T13:05:25.591Z,29.00
2018-06-28T13:07:54.350Z,29.20
2018-06-28T13:10:23.149Z,29.50
2018-06-28T13:12:51.851Z,29.90
2018-06-28T13:15:20.574Z,29.90
2018-06-28T13:17:49.258Z,29.70
2018-06-28T13:20:17.911Z,29.60
2018-06-28T13:22:46.581Z,29.40
2018-06-28T13:25:15.333Z,29.20
2018-06-28T13:27:44.056Z,29.50
2018-06-28T13:32:55.540Z,29.90
2018-06-28T13:35:26.953Z,29.90
2018-06-28T13:37:56.587Z,29.40
2018-06-28T13:40:27.215Z,29.20
2018-06-28T13:42:58.418Z,28.90
2018-06-28T13:45:33.018Z,29.40
2018-06-28T13:48:01.942Z,29.80
2018-06-28T13:50:30.820Z,30.10
2018-06-28T13:52:59.950Z,30.10
2018-06-28T13:55:28.750Z,30.10
2018-06-28T13:58:00.380Z,30.30
2018-06-28T14:00:29.279Z,30.30
2018-06-28T14:02:58.031Z,30.30
2018-06-28T14:05:27.744Z,30.40
2018-06-28T14:10:26.418Z,30.00
2018-06-28T14:12:55.279Z,29.80
2018-06-28T14:15:24.134Z,29.30
2018-06-28T14:17:53.000Z,28.80
2018-06-28T14:20:21.796Z,28.70
2018-06-28T14:22:50.645Z,29.10
2018-06-28T14:25:19.401Z,29.50
2018-06-28T14:27:48.197Z,29.70
2018-06-28T14:30:16.939Z,29.80
2018-06-28T14:32:45.701Z,30.10
2018-06-28T14:35:14.597Z,30.50
2018-06-28T14:37:43.532Z,30.70
2018-06-28T14:40:12.342Z,30.30
2018-06-28T14:42:41.054Z,29.90
2018-06-28T14:45:09.845Z,29.70
2018-06-28T14:47:38.530Z,29.70
2018-06-28T14:50:07.247Z,29.70
2018-06-28T14:52:35.961Z,29.70
2018-06-28T14:55:05.331Z,30.10
2018-06-28T14:57:34.005Z,30.40
2018-06-28T15:00:02.777Z,30.60
2018-06-28T15:02:31.500Z,30.70
2018-06-28T15:05:00.361Z,30.50
2018-06-28T15:07:29.099Z,30.60
2018-06-28T15:09:57.901Z,30.50
2018-06-28T15:12:26.710Z,30.60
2018-06-28T15:14:55.445Z,30.40
2018-06-28T15:17:24.137Z,30.50
2018-06-28T15:19:52.838Z,30.70
2018-06-28T15:22:21.528Z,30.70
2018-06-28T15:24:50.222Z,30.80
2018-06-28T15:27:18.845Z,30.80
2018-06-28T15:29:47.509Z,30.80
2018-06-28T15:34:44.598Z,30.30
2018-06-28T15:37:13.333Z,29.90
2018-06-28T15:39:42.049Z,29.80
2018-06-28T15:42:10.966Z,29.90
2018-06-28T15:44:39.779Z,30.30
2018-06-28T15:47:09.122Z,30.80
2018-06-28T15:49:37.860Z,31.40
2018-06-28T15:52:07.413Z,31.90
2018-06-28T15:54:36.241Z,31.30
2018-06-28T15:57:04.961Z,30.60
2018-06-28T15:59:53.679Z,30.50
2018-06-28T16:02:22.721Z,30.90
2018-06-28T16:04:51.429Z,30.80
2018-06-28T16:07:20.236Z,30.50
2018-06-28T16:09:49.253Z,29.80
2018-06-28T16:12:18.064Z,29.40
2018-06-28T16:14:46.818Z,29.20
2018-06-28T16:17:15.644Z,29.00
2018-06-28T16:19:44.348Z,29.10
2018-06-28T16:22:13.047Z,29.10
2018-06-28T16:24:41.767Z,29.20
2018-06-28T16:27:10.608Z,29.20
2018-06-28T16:29:39.374Z,29.30
2018-06-28T16:32:08.117Z,29.40
2018-06-28T16:34:36.895Z,29.60
2018-06-28T16:37:05.628Z,29.50
2018-06-28T16:39:34.315Z,29.50
2018-06-28T16:42:03.055Z,29.20
2018-06-28T16:44:31.885Z,29.10
2018-06-28T16:47:00.563Z,28.70
2018-06-28T16:49:29.303Z,28.50
2018-06-28T16:51:58.026Z,28.40
2018-06-28T16:54:26.704Z,28.40
2018-06-28T16:56:55.454Z,28.40
2018-06-28T16:59:24.237Z,28.50
2018-06-28T17:01:52.959Z,28.50
2018-06-28T17:04:21.736Z,28.50
2018-06-28T17:06:50.467Z,28.50
2018-06-28T17:09:19.226Z,28.50
2018-06-28T17:11:47.987Z,28.60
2018-06-28T17:14:16.763Z,28.70
2018-06-28T17:16:45.518Z,28.70
2018-06-28T17:19:14.267Z,28.60
2018-06-28T17:21:43.057Z,28.50
2018-06-28T17:24:11.754Z,28.50
2018-06-28T17:26:40.611Z,28.30
2018-06-28T17:29:09.405Z,28.10
2018-06-28T17:31:38.107Z,27.90
2018-06-28T17:34:06.767Z,27.70
2018-06-28T17:36:35.492Z,27.60
2018-06-28T17:39:06.291Z,27.50
2018-06-28T17:41:35.106Z,27.40
2018-06-28T17:44:03.827Z,27.40
2018-06-28T17:46:32.591Z,27.40
2018-06-28T17:49:01.398Z,27.40
2018-06-28T17:51:30.089Z,27.40
2018-06-28T17:53:58.898Z,27.30
2018-06-28T17:56:27.605Z,27.20
2018-06-28T17:58:56.441Z,27.20
2018-06-28T18:01:25.191Z,27.20
2018-06-28T18:03:53.989Z,27.20
2018-06-28T18:06:22.710Z,27.20
2018-06-28T18:08:51.475Z,27.30
2018-06-28T18:11:20.202Z,27.20
2018-06-28T18:13:48.919Z,27.20
2018-06-28T18:16:17.658Z,27.10
2018-06-28T18:18:46.497Z,27.00
2018-06-28T18:21:15.212Z,27.10
2018-06-28T18:23:44.006Z,27.00
2018-06-28T18:26:12.760Z,27.00
2018-06-28T18:28:41.512Z,27.00
2018-06-28T18:31:10.246Z,26.90
2018-06-28T18:33:39.044Z,26.80
2018-06-28T18:36:07.816Z,26.70
2018-06-28T18:38:36.530Z,26.70
2018-06-28T18:41:05.295Z,26.50
2018-06-28T18:46:02.407Z,26.50
2018-06-28T18:48:31.156Z,26.30
2018-06-28T18:50:59.987Z,26.30
2018-06-28T18:53:28.747Z,26.20
2018-06-28T18:55:57.670Z,26.10
2018-06-28T18:58:26.419Z,26.10
2018-06-28T19:00:55.127Z,26.10
2018-06-28T19:03:23.913Z,26.00
2018-06-28T19:05:53.422Z,25.90
2018-06-28T19:08:22.183Z,25.80
2018-06-28T19:10:56.229Z,25.70
2018-06-28T19:13:26.126Z,25.60
2018-06-28T19:16:00.218Z,25.50
2018-06-28T19:18:28.992Z,25.40
2018-06-28T19:21:02.946Z,25.40
2018-06-28T19:23:36.972Z,25.30
2018-06-28T19:26:05.894Z,25.30
2018-06-28T19:28:35.274Z,25.20
2018-06-28T19:31:09.590Z,25.10
2018-06-28T19:33:48.788Z,25.00
2018-06-28T19:36:17.637Z,25.00
2018-06-28T19:38:51.682Z,24.90
2018-06-28T19:41:25.809Z,24.80
2018-06-28T19:43:54.701Z,24.70
2018-06-28T19:46:23.441Z,24.60
2018-06-28T19:48:52.224Z,24.50
2018-06-28T19:51:26.368Z,24.50
2018-06-28T19:53:55.230Z,24.40
2018-06-28T19:56:23.990Z,24.30
2018-06-28T19:58:52.747Z,24.30
2018-06-28T20:01:26.857Z,24.20
2018-06-28T20:04:02.142Z,24.20
2018-06-28T20:06:30.956Z,24.10
2018-06-28T20:08:59.652Z,24.00
2018-06-28T20:11:28.929Z,24.00
2018-06-28T20:14:03.958Z,23.90
2018-06-28T20:16:38.861Z,24.00
2018-06-28T20:19:12.917Z,23.90
2018-06-28T20:21:41.966Z,23.80
2018-06-28T20:24:10.742Z,23.70
2018-06-28T20:26:44.925Z,23.60
2018-06-28T20:29:21.703Z,23.60
2018-06-28T20:31:55.712Z,23.50
2018-06-28T20:34:24.566Z,23.30
2018-06-28T20:36:54.690Z,23.30
2018-06-28T20:39:23.474Z,23.30
2018-06-28T20:41:52.313Z,23.20
2018-06-28T20:44:21.010Z,23.20
2018-06-28T20:46:49.724Z,23.10
2018-06-28T20:49:18.487Z,23.10
2018-06-28T20:51:47.187Z,23.00
2018-06-28T20:54:15.876Z,22.90
2018-06-28T20:56:44.707Z,22.90
2018-06-28T20:59:13.529Z,22.90
2018-06-28T21:01:42.257Z,22.80
2018-06-28T21:04:11.068Z,22.70
2018-06-28T21:06:40.020Z,22.80
2018-06-28T21:09:08.985Z,22.70
2018-06-28T21:11:42.492Z,22.60
2018-06-28T21:14:11.884Z,22.60
2018-06-28T21:16:40.810Z,22.60
2018-06-28T21:19:11.407Z,22.50
2018-06-28T21:21:40.630Z,22.40
2018-06-28T21:24:10.086Z,22.40
2018-06-28T21:26:38.957Z,22.30
2018-06-28T21:29:07.846Z,22.20
2018-06-28T21:34:07.221Z,22.20
2018-06-28T21:36:36.737Z,22.10
2018-06-28T21:39:08.423Z,22.10
2018-06-28T21:41:37.451Z,22.00
2018-06-28T21:46:35.564Z,21.80
2018-06-28T21:49:04.449Z,21.80
2018-06-28T21:51:34.218Z,21.80
2018-06-28T21:54:02.999Z,21.70
2018-06-28T21:56:31.712Z,21.70
2018-06-28T21:59:00.423Z,21.70
2018-06-28T22:01:29.214Z,21.60
2018-06-28T22:03:57.973Z,21.50
2018-06-28T22:06:26.717Z,21.50
2018-06-28T22:08:55.436Z,21.40
2018-06-28T22:11:24.146Z,21.40
2018-06-28T22:13:52.871Z,21.30
2018-06-28T22:18:49.874Z,21.20
2018-06-28T22:21:18.578Z,21.20
2018-06-28T22:23:47.258Z,21.10
2018-06-28T22:26:16.049Z,21.10
2018-06-28T22:28:44.795Z,21.00
2018-06-28T22:33:41.827Z,20.90
2018-06-28T22:36:10.551Z,20.80
2018-06-28T22:38:39.387Z,20.80
2018-06-28T22:41:08.132Z,20.60
2018-06-28T22:43:36.881Z,20.60
2018-06-28T22:46:05.627Z,20.60
2018-06-28T22:48:34.376Z,20.60
2018-06-28T22:51:03.102Z,20.60
2018-06-28T22:53:32.769Z,20.50
2018-06-28T22:56:01.411Z,20.40
2018-06-28T22:58:30.045Z,20.30
2018-06-28T23:00:58.711Z,20.30
2018-06-28T23:03:27.406Z,20.20
2018-06-28T23:05:56.265Z,20.20
2018-06-28T23:08:25.019Z,20.10
2018-06-28T23:10:53.749Z,20.10
2018-06-28T23:13:22.401Z,20.00
2018-06-28T23:15:51.187Z,19.90
2018-06-28T23:18:19.933Z,19.90
2018-06-28T23:23:16.944Z,19.70
2018-06-28T23:25:45.642Z,19.70
2018-06-28T23:28:14.320Z,19.70
2018-06-28T23:30:42.984Z,19.60
2018-06-28T23:33:12.336Z,19.50
2018-06-28T23:35:40.968Z,19.50
2018-06-28T23:38:09.723Z,19.50
2018-06-28T23:40:38.460Z,19.40
2018-06-28T23:45:35.507Z,19.30
2018-06-28T23:48:04.145Z,19.20
2018-06-28T23:50:32.822Z,19.20
2018-06-28T23:53:01.561Z,19.10
2018-06-28T23:55:30.295Z,19.10
2018-06-28T23:57:58.982Z,19.10
